Roseburg, Oregon
Current Conditions -  °F | °C
As of 6:53 PM on Tuesday 21 Oct 2014 (Local Time) from KRBG Reporting Station
Overcast Overcast  
Wind Chill: 62°   Ceiling: 8000
Heat Index: 62°   Visibility: 10mi
Dew Point: 45°   Wind: 3mph
Humidity: 53%   Direction: 170°S
Pressure: 29.96"   Gusts: NA
Location:  43.21°N, 123.34°W
Report Text: KRBG 220153Z AUTO 17003KT 10SM FEW055 OVC080 17/07 A2996 RMK AO2 SLP145 T01670072
Loading
Personal Weather Stations






























Interactive Weather Map
Tropical Storm Tracking
New forecast layout! Learn more

10-Day Weather Forecast

Advertisements
Track Severe Weather on mobile